Stephen R Warden — WDC6523 — position and weather

sailwx.info

Track history (hours):
 
Tides and Currents Weather Stations Pressure Air Temp Water Temp Dewpoint Dewpoint Depression Visibility Wind Speed Wind Dir Waves Ship Positions

Stephen R Warden

Owner: American Commercial Lines LLC, Jeffersonvile, IN. More information available from US FCC via Universal Licensing System and Coast Guard Vessel Documentation Center.

Last reported at 2016-Apr-28 14:24 UTC. Time now 2016-Apr-29 01:56 UTC.
Position N 29°55' W 090°12'.

Length 37 m; draft 3 m.

Type: Towing. MMSI: 367057460.

Date/timePositionNaut miles runAvg speedWind from/ knotsBaromVisibWave heightAir tempDewpointWater temp
2016-Apr-28 14:24N 29°55' W 090°12'2 2.9
2016-Apr-28 13:34N 29°57' W 090°10'2 2.2
2016-Apr-28 12:34N 29°55' W 090°08'2 2.0
2016-Apr-28 11:34N 29°55' W 090°06'3 2.8
2016-Apr-28 10:34N 29°56' W 090°03'2 2.3
2016-Apr-28 09:34N 29°57' W 090°01'3 2.6
2016-Apr-28 08:34N 29°55' W 089°58'3 2.6
2016-Apr-28 07:33N 29°55' W 089°55'3 2.4
2016-Apr-28 06:18N 29°52' W 089°55'2 3.3
2016-Apr-28 05:33N 29°53' W 089°58'3 2.9
2016-Apr-28 04:33N 29°50' W 089°59'3 2.9
2016-Apr-28 03:33N 29°48' W 090°01'0 0.0
2016-Apr-28 02:33N 29°48' W 090°01'0 0.0
2016-Apr-28 01:33N 29°48' W 090°01'1 0.3
2016-Apr-27 23:30N 29°47' W 090°01'1 0.5
2016-Apr-27 22:25N 29°47' W 090°01'4 0.1
2016-Apr-26 18:31N 29°43' W 089°59'6 6.2
2016-Apr-26 17:33N 29°49' W 090°00'6 5.7
2016-Apr-26 16:27N 29°53' W 089°54'6 6.2
2016-Apr-26 15:34N 29°56' W 089°60'3 3.4
2016-Apr-26 14:34N 29°58' W 090°03'5 5.1
2016-Apr-26 13:34N 29°55' W 090°08'3 3.3
2016-Apr-26 12:33N 29°56' W 090°12'4 0.1
2016-Apr-24 14:10N 29°58' W 090°15'2 3.6
2016-Apr-24 13:33N 29°56' W 090°13'2 1.5
2016-Apr-24 12:32N 29°56' W 090°12'3 3.1
2016-Apr-24 11:34N 29°57' W 090°08'4 3.7
2016-Apr-24 10:34N 29°55' W 090°05'4 4.0
2016-Apr-24 09:34N 29°56' W 090°00'4 4.0
2016-Apr-24 08:34N 29°55' W 089°56'3 3.0
2016-Apr-24 07:33N 29°52' W 089°56'4 3.3
2016-Apr-24 06:27N 29°50' W 089°59'4 4.7
2016-Apr-24 05:30N 29°46' W 090°01'0 0.0
2016-Apr-23 20:12N 29°46' W 090°01'2 3.2
2016-Apr-23 19:34N 29°48' W 090°01'2 1.6
2016-Apr-23 18:33N 29°49' W 090°00'7 6.6
2016-Apr-23 17:33N 29°53' W 089°54'5 5.1
2016-Apr-23 16:34N 29°56' W 089°59'2 2.0
2016-Apr-23 15:33N 29°57' W 090°01'6 6.4
2016-Apr-23 14:34N 29°55' W 090°08'3 2.8
2016-Apr-23 13:23N 29°56' W 090°12'0 0.4
2016-Apr-23 12:33N 29°56' W 090°11'0 0.3
2016-Apr-23 11:34N 29°56' W 090°12'9 6.7
2016-Apr-23 10:12N 29°56' W 090°22'8 0.2
2016-Apr-21 20:34N 29°57' W 090°13'3 2.5
2016-Apr-21 19:31N 29°56' W 090°11'2 2.3
2016-Apr-21 18:33N 29°56' W 090°08'4 4.0
2016-Apr-21 17:33N 29°56' W 090°04'2 1.8
2016-Apr-21 16:34N 29°57' W 090°02'3 3.2
2016-Apr-21 15:34N 29°56' W 089°59'2 1.9
2016-Apr-21 14:33N 29°55' W 089°57'1 1.2
2016-Apr-21 13:34N 29°55' W 089°55'1 1.1
2016-Apr-21 12:34N 29°54' W 089°55'3 2.5
2016-Apr-21 11:34N 29°53' W 089°57'3 3.2
2016-Apr-21 10:33N 29°50' W 089°59'3 2.6
2016-Apr-21 09:33N 29°48' W 090°00'0 0.0
2016-Apr-21 08:33N 29°48' W 090°00'0 0.0
2016-Apr-21 06:21N 29°48' W 090°00'0 0.0
2016-Apr-21 05:34N 29°48' W 090°00'0 0.1
2016-Apr-21 04:33N 29°48' W 090°00'0 0.4
2016-Apr-21 03:33N 29°48' W 090°01'0 0.0
2016-Apr-21 02:31N 29°48' W 090°01'1 1.0
2016-Apr-21 01:33N 29°47' W 090°01'3 0.4
2016-Apr-20 18:23N 29°44' W 090°00'7 8.8
2016-Apr-20 17:34N 29°51' W 089°59'5 4.7
2016-Apr-20 16:33N 29°55' W 089°55'0 0.2
2016-Apr-20 15:33N 29°55' W 089°56'3 3.4
2016-Apr-20 14:34N 29°56' W 089°59'3 3.4
2016-Apr-20 13:34N 29°58' W 090°03'5 5.1
2016-Apr-20 12:33N 29°55' W 090°07'3 3.3
2016-Apr-20 11:34N 29°56' W 090°11'  
Track history (hours):
 
Tides and Currents Weather Stations Pressure Air Temp Water Temp Dewpoint Dewpoint Depression Visibility Wind Speed Wind Dir Waves Ship Positions

Stephen R Warden

Owner: American Commercial Lines LLC, Jeffersonvile, IN. More information available from US FCC via Universal Licensing System and Coast Guard Vessel Documentation Center.

Last reported at 2016-Apr-28 14:24 UTC. Time now 2016-Apr-29 01:56 UTC.
Position N 29°55' W 090°12'.

Length 37 m; draft 3 m.

Type: Towing. MMSI: 367057460.

Date/timePositionNaut miles runAvg speedWind from/ knotsBaromVisibWave heightAir tempDewpointWater temp
2016-Apr-28 14:24N 29°55' W 090°12'2 2.9
2016-Apr-28 13:34N 29°57' W 090°10'2 2.2
2016-Apr-28 12:34N 29°55' W 090°08'2 2.0
2016-Apr-28 11:34N 29°55' W 090°06'3 2.8
2016-Apr-28 10:34N 29°56' W 090°03'2 2.3
2016-Apr-28 09:34N 29°57' W 090°01'3 2.6
2016-Apr-28 08:34N 29°55' W 089°58'3 2.6
2016-Apr-28 07:33N 29°55' W 089°55'3 2.4
2016-Apr-28 06:18N 29°52' W 089°55'2 3.3
2016-Apr-28 05:33N 29°53' W 089°58'3 2.9
2016-Apr-28 04:33N 29°50' W 089°59'3 2.9
2016-Apr-28 03:33N 29°48' W 090°01'0 0.0
2016-Apr-28 02:33N 29°48' W 090°01'0 0.0
2016-Apr-28 01:33N 29°48' W 090°01'1 0.3
2016-Apr-27 23:30N 29°47' W 090°01'1 0.5
2016-Apr-27 22:25N 29°47' W 090°01'4 0.1
2016-Apr-26 18:31N 29°43' W 089°59'6 6.2
2016-Apr-26 17:33N 29°49' W 090°00'6 5.7
2016-Apr-26 16:27N 29°53' W 089°54'6 6.2
2016-Apr-26 15:34N 29°56' W 089°60'3 3.4
2016-Apr-26 14:34N 29°58' W 090°03'5 5.1
2016-Apr-26 13:34N 29°55' W 090°08'3 3.3
2016-Apr-26 12:33N 29°56' W 090°12'4 0.1
2016-Apr-24 14:10N 29°58' W 090°15'2 3.6
2016-Apr-24 13:33N 29°56' W 090°13'2 1.5
2016-Apr-24 12:32N 29°56' W 090°12'3 3.1
2016-Apr-24 11:34N 29°57' W 090°08'4 3.7
2016-Apr-24 10:34N 29°55' W 090°05'4 4.0
2016-Apr-24 09:34N 29°56' W 090°00'4 4.0
2016-Apr-24 08:34N 29°55' W 089°56'3 3.0
2016-Apr-24 07:33N 29°52' W 089°56'4 3.3
2016-Apr-24 06:27N 29°50' W 089°59'4 4.7
2016-Apr-24 05:30N 29°46' W 090°01'0 0.0
2016-Apr-23 20:12N 29°46' W 090°01'2 3.2
2016-Apr-23 19:34N 29°48' W 090°01'2 1.6
2016-Apr-23 18:33N 29°49' W 090°00'7 6.6
2016-Apr-23 17:33N 29°53' W 089°54'5 5.1
2016-Apr-23 16:34N 29°56' W 089°59'2 2.0
2016-Apr-23 15:33N 29°57' W 090°01'6 6.4
2016-Apr-23 14:34N 29°55' W 090°08'3 2.8
2016-Apr-23 13:23N 29°56' W 090°12'0 0.4
2016-Apr-23 12:33N 29°56' W 090°11'0 0.3
2016-Apr-23 11:34N 29°56' W 090°12'9 6.7
2016-Apr-23 10:12N 29°56' W 090°22'8 0.2
2016-Apr-21 20:34N 29°57' W 090°13'3 2.5
2016-Apr-21 19:31N 29°56' W 090°11'2 2.3
2016-Apr-21 18:33N 29°56' W 090°08'4 4.0
2016-Apr-21 17:33N 29°56' W 090°04'2 1.8
2016-Apr-21 16:34N 29°57' W 090°02'3 3.2
2016-Apr-21 15:34N 29°56' W 089°59'2 1.9
2016-Apr-21 14:33N 29°55' W 089°57'1 1.2
2016-Apr-21 13:34N 29°55' W 089°55'1 1.1
2016-Apr-21 12:34N 29°54' W 089°55'3 2.5
2016-Apr-21 11:34N 29°53' W 089°57'3 3.2
2016-Apr-21 10:33N 29°50' W 089°59'3 2.6
2016-Apr-21 09:33N 29°48' W 090°00'0 0.0
2016-Apr-21 08:33N 29°48' W 090°00'0 0.0
2016-Apr-21 06:21N 29°48' W 090°00'0 0.0
2016-Apr-21 05:34N 29°48' W 090°00'0 0.1
2016-Apr-21 04:33N 29°48' W 090°00'0 0.4
2016-Apr-21 03:33N 29°48' W 090°01'0 0.0
2016-Apr-21 02:31N 29°48' W 090°01'1 1.0
2016-Apr-21 01:33N 29°47' W 090°01'3 0.4
2016-Apr-20 18:23N 29°44' W 090°00'7 8.8
2016-Apr-20 17:34N 29°51' W 089°59'5 4.7
2016-Apr-20 16:33N 29°55' W 089°55'0 0.2
2016-Apr-20 15:33N 29°55' W 089°56'3 3.4
2016-Apr-20 14:34N 29°56' W 089°59'3 3.4
2016-Apr-20 13:34N 29°58' W 090°03'5 5.1
2016-Apr-20 12:33N 29°55' W 090°07'3 3.3
2016-Apr-20 11:34N 29°56' W 090°11'  

Dump ship's entire track history